createdAt,value
2022-11-16T00:01:41.390Z,11.39
2022-11-16T00:04:09.652Z,11.39
2022-11-16T00:06:36.137Z,11.41
2022-11-16T00:09:22.112Z,11.40
2022-11-16T00:11:50.254Z,11.40
2022-11-16T00:14:17.450Z,11.43
2022-11-16T00:16:43.884Z,11.42
2022-11-16T00:19:11.388Z,11.42
2022-11-16T00:21:38.164Z,11.43
2022-11-16T00:24:05.568Z,11.46
2022-11-16T00:26:32.047Z,11.46
2022-11-16T00:28:58.783Z,11.46
2022-11-16T00:31:25.347Z,11.47
2022-11-16T00:33:52.236Z,11.46
2022-11-16T00:36:19.012Z,11.47
2022-11-16T00:38:45.584Z,11.48
2022-11-16T00:41:12.112Z,11.51
2022-11-16T00:43:38.645Z,11.53
2022-11-16T00:46:05.484Z,11.52
2022-11-16T00:48:32.423Z,11.53
2022-11-16T00:50:59.008Z,11.57
2022-11-16T00:53:25.492Z,11.54
2022-11-16T00:55:52.048Z,11.56
2022-11-16T00:58:18.543Z,11.53
2022-11-16T01:00:45.167Z,11.53
2022-11-16T01:03:12.156Z,11.55
2022-11-16T01:05:38.823Z,11.53
2022-11-16T01:08:06.391Z,11.55
2022-11-16T01:10:33.068Z,11.54
2022-11-16T01:12:59.679Z,11.57
2022-11-16T01:15:27.716Z,11.53
2022-11-16T01:17:55.966Z,11.53
2022-11-16T01:20:28.640Z,11.57
2022-11-16T01:22:55.472Z,11.55
2022-11-16T01:25:22.056Z,11.53
2022-11-16T01:27:48.705Z,11.55
2022-11-16T01:30:16.484Z,11.53
2022-11-16T01:32:43.056Z,11.57
2022-11-16T01:35:14.703Z,11.59
2022-11-16T01:37:41.177Z,11.57
2022-11-16T01:40:08.197Z,11.58
2022-11-16T01:42:34.773Z,11.58
2022-11-16T01:45:21.638Z,11.60
2022-11-16T01:47:48.635Z,11.61
2022-11-16T01:50:17.457Z,11.60
2022-11-16T01:52:50.671Z,11.60
2022-11-16T01:55:17.485Z,11.62
2022-11-16T01:57:47.577Z,11.60
2022-11-16T02:00:15.165Z,11.59
2022-11-16T02:02:42.195Z,11.62
2022-11-16T02:05:11.091Z,11.61
2022-11-16T02:08:53.202Z,11.62
2022-11-16T02:11:25.664Z,11.62
2022-11-16T02:14:10.464Z,11.63
2022-11-16T02:17:06.190Z,11.62
2022-11-16T02:19:51.204Z,11.63
2022-11-16T02:22:29.840Z,11.64
2022-11-16T02:25:07.941Z,11.63
2022-11-16T02:27:50.561Z,11.65
2022-11-16T02:30:19.116Z,11.66
2022-11-16T02:33:00.103Z,11.63
2022-11-16T02:35:49.720Z,11.65
2022-11-16T02:38:32.712Z,11.63
2022-11-16T02:41:08.043Z,11.63
2022-11-16T02:43:38.878Z,11.63
2022-11-16T02:46:09.807Z,11.62
2022-11-16T02:48:40.127Z,11.64
2022-11-16T02:51:08.175Z,11.62
2022-11-16T02:53:41.254Z,11.63
2022-11-16T02:56:13.153Z,11.62
2022-11-16T02:58:39.694Z,11.63
2022-11-16T03:01:12.840Z,11.65
2022-11-16T03:03:50.647Z,11.64
2022-11-16T03:06:26.420Z,11.64
2022-11-16T03:09:07.587Z,11.64
2022-11-16T03:11:57.214Z,11.60
2022-11-16T03:14:30.883Z,11.61
2022-11-16T03:16:58.567Z,11.62
2022-11-16T03:19:33.449Z,11.60
2022-11-16T03:22:06.358Z,11.60
2022-11-16T03:24:33.111Z,11.61
2022-11-16T03:27:37.151Z,11.60
2022-11-16T03:30:13.163Z,11.59
2022-11-16T03:32:55.106Z,11.56
2022-11-16T03:35:50.513Z,11.58
2022-11-16T03:38:19.121Z,11.54
2022-11-16T03:40:47.457Z,11.52
2022-11-16T03:43:15.385Z,11.51
2022-11-16T03:45:43.124Z,11.50
2022-11-16T03:48:09.576Z,11.46
2022-11-16T03:50:36.017Z,11.46
2022-11-16T03:53:02.508Z,11.48
2022-11-16T03:55:28.977Z,11.46
2022-11-16T03:57:55.641Z,11.45
2022-11-16T04:00:22.072Z,11.43
2022-11-16T04:02:48.478Z,11.42
2022-11-16T04:05:33.925Z,11.36
2022-11-16T04:08:18.696Z,11.33
2022-11-16T04:11:11.520Z,11.31
2022-11-16T04:13:56.264Z,11.29
2022-11-16T04:16:40.994Z,11.25
2022-11-16T04:19:27.882Z,11.21
2022-11-16T04:22:18.183Z,11.16
2022-11-16T04:24:48.878Z,11.18
2022-11-16T04:27:34.870Z,11.15
2022-11-16T04:30:03.521Z,11.09
2022-11-16T04:32:48.496Z,11.07
2022-11-16T04:35:33.806Z,11.08
2022-11-16T04:38:00.484Z,11.04
2022-11-16T04:40:29.497Z,11.02
2022-11-16T04:43:01.504Z,11.00
2022-11-16T04:45:46.719Z,10.98
2022-11-16T04:48:14.958Z,10.97
2022-11-16T04:50:42.928Z,10.93
2022-11-16T04:53:10.121Z,10.93
2022-11-16T04:55:36.876Z,10.91
2022-11-16T04:58:04.354Z,10.92
2022-11-16T05:00:31.167Z,10.87
2022-11-16T05:03:01.297Z,10.86
2022-11-16T05:05:28.645Z,10.82
2022-11-16T05:07:55.084Z,10.81
2022-11-16T05:10:21.547Z,10.78
2022-11-16T05:12:48.062Z,10.78
2022-11-16T05:15:14.567Z,10.77
2022-11-16T05:17:40.991Z,10.73
2022-11-16T05:20:26.778Z,10.71
2022-11-16T05:22:57.469Z,10.64
2022-11-16T05:25:24.016Z,10.63
2022-11-16T05:27:50.644Z,10.61
2022-11-16T05:30:17.586Z,10.55
2022-11-16T05:32:44.052Z,10.57
2022-11-16T05:35:10.495Z,10.55
2022-11-16T05:37:36.937Z,10.53
2022-11-16T05:40:03.916Z,10.54
2022-11-16T05:42:30.418Z,10.49
2022-11-16T05:44:56.967Z,10.43
2022-11-16T05:47:23.651Z,10.43
2022-11-16T05:49:50.083Z,10.40
2022-11-16T05:52:16.564Z,10.39
2022-11-16T05:54:42.973Z,10.35
2022-11-16T05:57:09.447Z,10.35
2022-11-16T05:59:35.993Z,10.34
2022-11-16T06:02:03.924Z,10.32
2022-11-16T06:04:30.392Z,10.28
2022-11-16T06:06:56.892Z,10.28
2022-11-16T06:09:23.417Z,10.21
2022-11-16T06:11:49.885Z,10.23
2022-11-16T06:14:16.383Z,10.23
2022-11-16T06:16:42.844Z,10.19
2022-11-16T06:19:09.319Z,10.19
2022-11-16T06:21:35.890Z,10.18
2022-11-16T06:24:03.691Z,10.17
2022-11-16T06:26:30.164Z,10.18
2022-11-16T06:28:56.728Z,10.18
2022-11-16T06:31:23.240Z,10.16
2022-11-16T06:33:49.684Z,10.13
2022-11-16T06:36:16.142Z,10.13
2022-11-16T06:38:42.729Z,10.11
2022-11-16T06:41:09.179Z,10.08
2022-11-16T06:43:35.657Z,10.07
2022-11-16T06:46:02.282Z,10.04
2022-11-16T06:48:30.494Z,10.02
2022-11-16T06:50:56.988Z,9.98
2022-11-16T06:53:28.761Z,9.93
2022-11-16T06:55:55.884Z,9.87
2022-11-16T06:58:22.438Z,9.84
2022-11-16T07:00:48.962Z,9.82
2022-11-16T07:03:15.502Z,9.78
2022-11-16T07:05:42.218Z,9.72
2022-11-16T07:08:09.380Z,9.70
2022-11-16T07:10:37.434Z,9.61
2022-11-16T07:13:04.414Z,9.59
2022-11-16T07:15:31.862Z,9.54
2022-11-16T07:18:06.807Z,9.52
2022-11-16T07:20:34.425Z,9.49
2022-11-16T07:23:02.522Z,9.43
2022-11-16T07:25:29.209Z,9.41
2022-11-16T07:27:58.024Z,9.38
2022-11-16T07:30:24.556Z,9.35
2022-11-16T07:32:50.976Z,9.36
2022-11-16T07:35:17.422Z,9.31
2022-11-16T07:37:44.109Z,9.27
2022-11-16T07:40:10.925Z,9.24
2022-11-16T07:42:37.514Z,9.24
2022-11-16T07:45:04.216Z,9.19
2022-11-16T07:47:35.750Z,9.20
2022-11-16T07:50:02.303Z,9.18
2022-11-16T07:52:28.733Z,9.16
2022-11-16T07:54:55.161Z,9.17
2022-11-16T07:57:21.638Z,9.18
2022-11-16T07:59:48.085Z,9.17
2022-11-16T08:02:14.628Z,9.17
2022-11-16T08:04:41.178Z,9.19
2022-11-16T08:07:07.788Z,9.20
2022-11-16T08:09:34.935Z,9.22
2022-11-16T08:12:01.408Z,9.22
2022-11-16T08:14:27.883Z,9.24
2022-11-16T08:16:54.356Z,9.26
2022-11-16T08:19:20.767Z,9.25
2022-11-16T08:21:47.387Z,9.29
2022-11-16T08:24:13.873Z,9.30
2022-11-16T08:26:40.558Z,9.33
2022-11-16T08:29:07.012Z,9.35
2022-11-16T08:31:33.452Z,9.38
2022-11-16T08:34:00.635Z,9.46
2022-11-16T08:36:27.067Z,9.48
2022-11-16T08:38:54.156Z,9.50
2022-11-16T08:41:21.421Z,9.53
2022-11-16T08:43:50.524Z,9.57
2022-11-16T08:46:17.623Z,9.58
2022-11-16T08:48:44.503Z,9.59
2022-11-16T08:51:18.964Z,9.59
2022-11-16T08:53:48.568Z,9.63
2022-11-16T08:56:16.919Z,9.70
2022-11-16T08:58:44.259Z,9.75
2022-11-16T09:01:15.926Z,9.72
2022-11-16T09:03:42.648Z,9.77
2022-11-16T09:06:10.311Z,9.79
2022-11-16T09:08:38.687Z,9.84
2022-11-16T09:11:06.120Z,9.95
2022-11-16T09:13:32.952Z,10.05
2022-11-16T09:16:00.651Z,10.16
2022-11-16T09:18:28.514Z,10.20
2022-11-16T09:20:55.423Z,10.30
2022-11-16T09:23:25.559Z,10.32
2022-11-16T09:25:52.928Z,10.37
2022-11-16T09:28:20.574Z,10.40
2022-11-16T09:30:50.424Z,10.41
2022-11-16T09:33:16.986Z,10.37
2022-11-16T09:35:43.536Z,10.32
2022-11-16T09:38:10.629Z,10.39
2022-11-16T09:40:41.092Z,10.49
2022-11-16T09:43:31.257Z,10.71
2022-11-16T09:46:37.982Z,10.76
2022-11-16T09:49:17.669Z,10.75
2022-11-16T09:51:49.750Z,10.66
2022-11-16T09:54:27.602Z,10.82
2022-11-16T09:56:59.685Z,10.92
2022-11-16T09:59:28.776Z,11.02
2022-11-16T10:01:58.164Z,11.08
2022-11-16T10:04:38.377Z,11.09
2022-11-16T10:07:17.115Z,11.12
2022-11-16T10:09:45.106Z,11.23
2022-11-16T10:12:22.712Z,11.28
2022-11-16T10:14:49.079Z,11.37
2022-11-16T10:17:36.832Z,11.34
2022-11-16T10:20:42.142Z,11.39
2022-11-16T10:23:39.214Z,11.41
2022-11-16T10:26:12.698Z,11.40
2022-11-16T10:29:05.101Z,11.37
2022-11-16T10:31:40.461Z,11.37
2022-11-16T10:34:15.769Z,11.41
2022-11-16T10:36:42.446Z,11.46
2022-11-16T10:39:14.906Z,11.49
2022-11-16T10:41:46.101Z,11.58
2022-11-16T10:44:25.883Z,11.60
2022-11-16T10:47:05.964Z,11.63
2022-11-16T10:50:00.191Z,11.72
2022-11-16T10:52:26.824Z,11.75
2022-11-16T10:54:53.350Z,11.81
2022-11-16T10:57:20.422Z,11.76
2022-11-16T10:59:50.178Z,11.67
2022-11-16T11:02:37.273Z,11.70
2022-11-16T11:05:06.561Z,11.82
2022-11-16T11:07:36.169Z,11.74
2022-11-16T11:10:02.811Z,11.57
2022-11-16T11:12:38.306Z,11.57
2022-11-16T11:15:10.736Z,11.83
2022-11-16T11:17:39.992Z,11.92
2022-11-16T11:20:08.179Z,11.95
2022-11-16T11:22:43.440Z,12.02
2022-11-16T11:25:27.588Z,12.12
2022-11-16T11:28:06.391Z,12.21
2022-11-16T11:30:34.045Z,12.08
2022-11-16T11:33:01.057Z,12.11
2022-11-16T11:35:32.890Z,12.21
2022-11-16T11:38:07.438Z,12.26
2022-11-16T11:40:34.363Z,12.32
2022-11-16T11:43:02.156Z,12.39
2022-11-16T11:45:38.354Z,12.44
2022-11-16T11:48:36.681Z,12.49
2022-11-16T11:51:12.067Z,12.49
2022-11-16T11:54:16.445Z,12.49
2022-11-16T11:56:42.990Z,12.49
2022-11-16T11:59:17.628Z,12.26
2022-11-16T12:02:06.444Z,12.08
2022-11-16T12:04:53.010Z,12.00
2022-11-16T12:07:37.722Z,11.99
2022-11-16T12:10:12.348Z,11.94
2022-11-16T12:13:00.410Z,11.94
2022-11-16T12:15:39.469Z,11.90
2022-11-16T12:18:24.684Z,11.86
2022-11-16T12:21:05.702Z,11.87
2022-11-16T12:23:35.492Z,11.87
2022-11-16T12:26:17.189Z,11.83
2022-11-16T12:29:03.488Z,11.81
2022-11-16T12:31:57.757Z,11.90
2022-11-16T12:34:52.392Z,11.93
2022-11-16T12:37:39.697Z,11.98
2022-11-16T12:40:35.529Z,11.96
2022-11-16T12:43:26.371Z,12.24
2022-11-16T12:46:29.813Z,12.46
2022-11-16T12:49:05.114Z,12.51
2022-11-16T12:51:38.971Z,12.42
2022-11-16T12:54:35.989Z,12.43
2022-11-16T12:57:11.468Z,12.44
2022-11-16T12:59:44.027Z,12.51
2022-11-16T13:02:29.191Z,12.58
2022-11-16T13:05:12.294Z,12.60
2022-11-16T13:07:44.411Z,12.62
2022-11-16T13:10:27.776Z,12.62
2022-11-16T13:13:29.645Z,12.59
2022-11-16T13:15:48.266Z,12.57
2022-11-16T13:18:18.123Z,12.54
2022-11-16T13:20:48.513Z,12.53
2022-11-16T13:23:46.439Z,12.52
2022-11-16T13:26:26.660Z,12.53
2022-11-16T13:29:39.833Z,12.52
2022-11-16T13:32:17.644Z,12.51
2022-11-16T13:34:45.907Z,12.53
2022-11-16T13:37:37.044Z,12.42
2022-11-16T13:40:04.424Z,12.31
2022-11-16T13:42:34.071Z,12.23
2022-11-16T13:45:17.629Z,12.12
2022-11-16T13:47:55.874Z,11.95
2022-11-16T13:50:33.112Z,11.89
2022-11-16T13:56:16.804Z,11.88
2022-11-16T13:58:46.983Z,11.86
2022-11-16T14:01:14.773Z,11.88
2022-11-16T14:03:51.382Z,11.82
2022-11-16T14:06:23.798Z,11.87
2022-11-16T14:08:57.131Z,11.93
2022-11-16T14:11:38.735Z,12.01
2022-11-16T14:14:10.555Z,11.98
2022-11-16T14:16:51.164Z,12.00
2022-11-16T14:19:47.593Z,11.95
2022-11-16T14:22:55.449Z,11.91
2022-11-16T14:25:40.213Z,11.80
2022-11-16T14:28:37.644Z,11.69
2022-11-16T14:31:15.445Z,11.61
2022-11-16T14:33:42.696Z,11.55
2022-11-16T14:36:10.748Z,11.54
2022-11-16T14:38:42.862Z,11.50
2022-11-16T14:41:22.278Z,11.47
2022-11-16T14:43:53.011Z,11.51
2022-11-16T14:46:26.009Z,11.61
2022-11-16T14:48:55.556Z,11.65
2022-11-16T14:51:27.117Z,11.65
2022-11-16T14:54:01.762Z,11.55
2022-11-16T14:56:28.323Z,11.50
2022-11-16T14:58:57.269Z,11.46
2022-11-16T15:01:31.393Z,11.38
2022-11-16T15:04:04.750Z,11.32
2022-11-16T15:06:40.775Z,11.22
2022-11-16T15:09:07.584Z,11.13
2022-11-16T15:11:57.783Z,11.07
2022-11-16T15:14:29.902Z,10.96
2022-11-16T15:16:59.031Z,10.89
2022-11-16T15:19:28.720Z,10.86
2022-11-16T15:22:00.529Z,10.75
2022-11-16T15:24:34.881Z,10.64
2022-11-16T15:27:33.508Z,10.54
2022-11-16T15:30:14.868Z,10.43
2022-11-16T15:32:43.365Z,10.34
2022-11-16T15:35:30.022Z,10.27
2022-11-16T15:38:21.891Z,10.20
2022-11-16T15:40:58.636Z,10.15
2022-11-16T15:44:01.456Z,10.07
2022-11-16T15:46:34.016Z,10.01
2022-11-16T15:49:00.878Z,9.91
2022-11-16T15:51:33.574Z,9.82
2022-11-16T15:54:24.908Z,9.75
2022-11-16T15:56:56.894Z,9.67
2022-11-16T15:59:34.393Z,9.58
2022-11-16T16:02:00.877Z,9.51
2022-11-16T16:04:28.976Z,9.48
2022-11-16T16:06:57.927Z,9.43
2022-11-16T16:09:28.714Z,9.39
2022-11-16T16:12:21.020Z,9.31
2022-11-16T16:14:49.218Z,9.27
2022-11-16T16:17:28.115Z,9.24
2022-11-16T16:20:00.341Z,9.23
2022-11-16T16:22:33.312Z,9.18
2022-11-16T16:25:01.823Z,9.14
2022-11-16T16:27:30.414Z,9.13
2022-11-16T16:29:59.054Z,9.15
2022-11-16T16:32:31.049Z,9.13
2022-11-16T16:34:59.668Z,9.10
2022-11-16T16:37:28.527Z,9.11
2022-11-16T16:39:55.193Z,9.08
2022-11-16T16:42:21.847Z,9.12
2022-11-16T16:44:49.739Z,9.10
2022-11-16T16:47:17.611Z,9.08
2022-11-16T16:49:44.091Z,9.08
2022-11-16T16:52:12.362Z,9.07
2022-11-16T16:54:39.357Z,9.04
2022-11-16T16:57:05.848Z,9.01
2022-11-16T16:59:32.385Z,8.96
2022-11-16T17:01:59.242Z,8.96
2022-11-16T17:04:26.010Z,8.90
2022-11-16T17:06:53.212Z,8.91
2022-11-16T17:09:20.154Z,8.89
2022-11-16T17:11:47.558Z,8.84
2022-11-16T17:14:14.189Z,8.78
2022-11-16T17:16:40.735Z,8.76
2022-11-16T17:19:07.211Z,8.73
2022-11-16T17:21:33.702Z,8.71
2022-11-16T17:24:00.213Z,8.66
2022-11-16T17:26:29.353Z,8.64
2022-11-16T17:28:57.108Z,8.59
2022-11-16T17:31:25.029Z,8.53
2022-11-16T17:33:52.261Z,8.53
2022-11-16T17:36:18.941Z,8.51
2022-11-16T17:38:45.588Z,8.46
2022-11-16T17:41:18.133Z,8.41
2022-11-16T17:43:46.436Z,8.38
2022-11-16T17:46:16.621Z,8.30
2022-11-16T17:48:45.120Z,8.28
2022-11-16T17:51:12.940Z,8.25
2022-11-16T17:53:40.706Z,8.25
2022-11-16T17:56:08.038Z,8.19
2022-11-16T17:58:34.566Z,8.14
2022-11-16T18:01:01.343Z,8.13
2022-11-16T18:03:30.717Z,8.13
2022-11-16T18:06:13.197Z,8.13
2022-11-16T18:08:41.459Z,8.18
2022-11-16T18:11:11.025Z,8.22
2022-11-16T18:13:37.894Z,8.26
2022-11-16T18:16:14.170Z,8.34
2022-11-16T18:18:41.548Z,8.38
2022-11-16T18:21:09.305Z,8.44
2022-11-16T18:23:37.435Z,8.50
2022-11-16T18:26:08.868Z,8.53
2022-11-16T18:28:35.669Z,8.60
2022-11-16T18:31:07.414Z,8.68
2022-11-16T18:33:36.334Z,8.74
2022-11-16T18:36:04.627Z,8.78
2022-11-16T18:38:31.506Z,8.82
2022-11-16T18:41:13.320Z,8.86
2022-11-16T18:43:39.706Z,8.86
2022-11-16T18:46:06.722Z,8.83
2022-11-16T18:48:33.277Z,8.80
2022-11-16T18:51:00.856Z,8.80
2022-11-16T18:53:28.583Z,8.79
2022-11-16T18:55:57.993Z,8.80
2022-11-16T18:58:49.409Z,8.81
2022-11-16T19:01:14.831Z,8.84
2022-11-16T19:03:42.015Z,8.93
2022-11-16T19:06:10.132Z,8.98
2022-11-16T19:08:38.765Z,9.05
2022-11-16T19:11:15.776Z,9.13
2022-11-16T19:13:44.023Z,9.20
2022-11-16T19:16:13.329Z,9.22
2022-11-16T19:18:40.537Z,9.20
2022-11-16T19:21:08.119Z,9.23
2022-11-16T19:23:38.897Z,9.20
2022-11-16T19:26:06.193Z,9.21
2022-11-16T19:28:40.063Z,9.19
2022-11-16T19:31:19.756Z,9.17
2022-11-16T19:33:46.714Z,9.17
2022-11-16T19:36:16.011Z,9.19
2022-11-16T19:38:45.150Z,9.20
2022-11-16T19:41:13.428Z,9.20
2022-11-16T19:43:40.228Z,9.23
2022-11-16T19:46:18.052Z,9.24
2022-11-16T19:48:45.813Z,9.27
2022-11-16T19:51:15.244Z,9.29
2022-11-16T19:53:42.545Z,9.30
2022-11-16T19:56:12.425Z,9.28
2022-11-16T19:58:39.120Z,9.35
2022-11-16T20:01:14.443Z,9.40
2022-11-16T20:03:41.958Z,9.41
2022-11-16T20:06:29.400Z,9.43
2022-11-16T20:09:02.146Z,9.40
2022-11-16T20:11:30.455Z,9.45
2022-11-16T20:13:58.208Z,9.48
2022-11-16T20:16:27.502Z,9.49
2022-11-16T20:18:54.401Z,9.49
2022-11-16T20:21:25.689Z,9.50
2022-11-16T20:23:53.470Z,9.49
2022-11-16T20:26:20.882Z,9.51
2022-11-16T20:28:47.801Z,9.49
2022-11-16T20:31:16.621Z,9.53
2022-11-16T20:33:49.678Z,9.53
2022-11-16T20:36:16.170Z,9.58
2022-11-16T20:38:42.614Z,9.59
2022-11-16T20:41:13.789Z,9.61
2022-11-16T20:43:41.366Z,9.62
2022-11-16T20:46:09.417Z,9.68
2022-11-16T20:48:36.456Z,9.68
2022-11-16T20:51:03.450Z,9.70
2022-11-16T20:53:30.309Z,9.69
2022-11-16T20:55:57.578Z,9.71
2022-11-16T20:58:24.819Z,9.72
2022-11-16T21:00:51.309Z,9.76
2022-11-16T21:03:17.840Z,9.79
2022-11-16T21:05:45.513Z,9.83
2022-11-16T21:08:12.426Z,9.84
2022-11-16T21:10:39.734Z,9.82
2022-11-16T21:13:29.365Z,9.84
2022-11-16T21:16:00.915Z,9.84
2022-11-16T21:18:30.702Z,9.82
2022-11-16T21:20:59.821Z,9.82
2022-11-16T21:23:28.604Z,9.84
2022-11-16T21:25:55.859Z,9.81
2022-11-16T21:28:25.468Z,9.81
2022-11-16T21:30:56.832Z,9.79
2022-11-16T21:33:23.985Z,9.80
2022-11-16T21:35:52.637Z,9.82
2022-11-16T21:38:20.406Z,9.83
2022-11-16T21:40:47.241Z,9.83
2022-11-16T21:43:15.084Z,9.84
2022-11-16T21:45:45.953Z,9.84
2022-11-16T21:48:12.729Z,9.85
2022-11-16T21:50:39.803Z,9.83
2022-11-16T21:53:07.724Z,9.83
2022-11-16T21:55:34.881Z,9.81
2022-11-16T21:58:03.496Z,9.82
2022-11-16T22:00:30.613Z,9.81
2022-11-16T22:02:57.121Z,9.81
2022-11-16T22:05:42.385Z,9.80
2022-11-16T22:08:13.337Z,9.77
2022-11-16T22:10:40.038Z,9.79
2022-11-16T22:13:06.465Z,9.80
2022-11-16T22:15:33.085Z,9.79
2022-11-16T22:17:59.585Z,9.81
2022-11-16T22:20:26.063Z,9.79
2022-11-16T22:22:52.561Z,9.79
2022-11-16T22:25:19.174Z,9.80
2022-11-16T22:28:18.629Z,9.81
2022-11-16T22:30:35.636Z,9.79
2022-11-16T22:33:02.107Z,9.79
2022-11-16T22:35:28.574Z,9.83
2022-11-16T22:37:55.971Z,9.83
2022-11-16T22:40:22.401Z,9.83
2022-11-16T22:42:48.857Z,9.80
2022-11-16T22:45:15.462Z,9.80
2022-11-16T22:47:41.961Z,9.82
2022-11-16T22:50:08.707Z,9.83
2022-11-16T22:52:35.244Z,9.84
2022-11-16T22:55:01.660Z,9.82
2022-11-16T22:57:28.071Z,9.79
2022-11-16T22:59:54.658Z,9.77
2022-11-16T23:02:21.112Z,9.75
2022-11-16T23:04:47.577Z,9.73
2022-11-16T23:07:14.054Z,9.73
2022-11-16T23:09:40.537Z,9.76
2022-11-16T23:12:25.235Z,9.73
2022-11-16T23:15:09.895Z,9.71
2022-11-16T23:17:36.381Z,9.72
2022-11-16T23:20:21.873Z,9.71
2022-11-16T23:23:23.378Z,9.71
2022-11-16T23:26:08.685Z,9.70
2022-11-16T23:28:35.281Z,9.67
2022-11-16T23:31:01.715Z,9.67
2022-11-16T23:33:46.368Z,9.65
2022-11-16T23:36:13.357Z,9.61
2022-11-16T23:38:40.399Z,9.63
2022-11-16T23:41:25.497Z,9.61
2022-11-16T23:43:57.711Z,9.59
2022-11-16T23:46:29.081Z,9.61
2022-11-16T23:48:55.946Z,9.60
2022-11-16T23:51:23.453Z,9.58
2022-11-16T23:53:54.276Z,9.60
2022-11-16T23:56:21.402Z,9.56
2022-11-16T23:58:48.385Z,9.54
